CSUN Campus Station - National Weather Service Data Page - PST Time




                Date      RH     Dew  Seasonal     Current   Max Air   Min Air    Wind    Wind    Wind    Gust     Bar    Rain
                Time       %   Point      Rain    Air Temp     Since     Since   Speed    Gust     Dir     Dir   Press   Total
                               Deg F    Inches       Deg F  Midnight  Midnight     MPH     MPH                      mb  Inches
------------------------------------------------------------------------------------------------------------------------------
    10/21/2014 00:00      81    54.4      0.10        60.1      81.3      59.6       1       4      30      37    1012    0.00
    10/21/2014 00:10      80    54.0      0.10        60.3      60.7      59.7       0       2      14       5    1012    0.00
    10/21/2014 00:20      82    53.9      0.10        59.7      60.7      59.5       0       1      17      16    1012    0.00
    10/21/2014 00:30      82    54.2      0.10        59.6      60.7      59.4       1       2      52      33    1012    0.00
    10/21/2014 00:40      82    54.5      0.10        59.8      60.7      59.4       1       3      39      21    1012    0.00
    10/21/2014 00:50      85    54.9      0.10        59.9      60.8      59.4       2       3      78      76    1012    0.00
    10/21/2014 01:00      84    55.4      0.10        60.1      60.9      59.4       1       2     147     134    1011    0.00
    10/21/2014 01:10      86    55.7      0.10        59.9      60.9      59.4       2       4     178     252    1011    0.00
    10/21/2014 01:20      87    56.3      0.10        60.1      60.9      59.4       2       5     131     148    1011    0.00
    10/21/2014 01:30      87    56.3      0.10        60.2      60.9      59.4       1       3     130      98    1011    0.00
    10/21/2014 01:40      87    55.6      0.10        59.5      60.9      59.2       1       3     156     154    1011    0.00
    10/21/2014 01:50      87    55.1      0.10        59.0      60.9      58.7       0       1     138     201    1011    0.00
    10/21/2014 02:00      87    54.4      0.10        58.4      60.9      58.0       1       4     256     255    1011    0.00
    10/21/2014 02:10      87    54.1      0.10        58.0      60.9      57.7       0       1     182     205    1011    0.00
    10/21/2014 02:20      87    53.9      0.10        57.7      60.9      57.5       0       3     184     175    1011    0.00
    10/21/2014 02:30      87    53.6      0.10        57.5      60.9      57.3       0       1     311     317    1011    0.00
    10/21/2014 02:40      87    53.3      0.10        57.3      60.9      57.0       1       2     222     317    1011    0.00
    10/21/2014 02:50      86    53.2      0.10        57.2      60.9      56.9       0       0       0       0    1011    0.00
    10/21/2014 03:00      86    53.0      0.10        57.0      60.9      56.7       0       2     239     178    1011    0.00
    10/21/2014 03:10      86    52.7      0.10        56.7      60.9      56.4       0       1     217     232    1011    0.00
    10/21/2014 03:20      87    52.7      0.10        56.6      60.9      56.4       1       4     139     141    1011    0.00
    10/21/2014 03:30      87    52.5      0.10        56.4      60.9      56.2       0       2     197     152    1011    0.00
    10/21/2014 03:40      87    52.7      0.10        56.5      60.9      56.1       2       4     258     248    1011    0.00
    10/21/2014 03:50      85    53.2      0.10        57.1      60.9      56.1       1       5     280     293    1011    0.00
    10/21/2014 04:00      79    53.3      0.10        59.4      60.9      56.1       2       5     241     258    1011    0.00
    10/21/2014 04:10      82    52.4      0.10        58.4      60.9      56.1       1       4     122     136    1011    0.00
    10/21/2014 04:20      83    52.3      0.10        57.5      60.9      56.1       1       2     147     139    1011    0.00
    10/21/2014 04:30      83    52.2      0.10        57.2      60.9      56.1       2       7     253     253    1011    0.00
    10/21/2014 04:40      84    52.4      0.10        57.4      60.9      56.1       1       4     260     252    1011    0.00
    10/21/2014 04:50      84    51.9      0.10        56.7      60.9      56.1       0       2     203     217    1011    0.00
    10/21/2014 05:00      86    52.0      0.10        56.4      60.9      56.1       1       4     207     187    1011    0.00
    10/21/2014 05:10      86    52.5      0.10        56.5      60.9      56.1       1       2     152     106    1011    0.00
    10/21/2014 05:20      86    52.5      0.10        56.5      60.9      56.1       1       3     131     102    1011    0.00
    10/21/2014 05:30      87    52.3      0.10        56.3      60.9      55.9       1       2     122     132    1011    0.00
    10/21/2014 05:40      87    52.6      0.10        56.5      60.9      55.9       1       3     122      63    1011    0.00
    10/21/2014 05:50      87    52.3      0.10        56.1      60.9      55.8       1       4     138     151    1011    0.00
    10/21/2014 06:00      88    51.8      0.10        55.5      60.9      55.0       2       4     144     152    1011    0.00
    10/21/2014 06:10      88    52.0      0.10        55.5      60.9      55.0       2       4     156     147    1011    0.00
    10/21/2014 06:20      88    52.0      0.10        55.4      60.9      55.0       1       3     141     167    1012    0.00
    10/21/2014 06:30      88    52.0      0.10        55.4      60.9      55.0       1       3     201     197    1012    0.00
    10/21/2014 06:40      89    52.2      0.10        55.6      60.9      55.0       1       2     138      99    1012    0.00
    10/21/2014 06:50      88    52.5      0.10        55.8      60.9      55.0       2       4     171     174    1012    0.00
    10/21/2014 07:00      88    53.1      0.10        56.5      60.9      55.0       1       3     176     179    1012    0.00
    10/21/2014 07:10      88    53.6      0.10        57.1      60.9      55.0       1       3     189     215    1012    0.00
    10/21/2014 07:20      85    53.8      0.10        58.0      60.9      55.0       1       4     240     261    1012    0.00
    10/21/2014 07:30      80    54.1      0.10        59.4      60.9      55.0       2       6     224     255    1012    0.00
    10/21/2014 07:40      78    54.1      0.10        60.6      61.2      55.0       2       6     253     236    1012    0.00
    10/21/2014 07:50      76    54.3      0.10        61.5      62.1      55.0       3       6     244     256    1012    0.00
    10/21/2014 08:00      73    54.4      0.10        62.6      63.3      55.0       2       5     230     194    1012    0.00
    10/21/2014 08:10      70    54.2      0.10        63.6      64.3      55.0       2       6     224     196    1012    0.00
    10/21/2014 08:20      67    53.9      0.10        64.5      65.3      55.0       3       6     218     206    1012    0.00
    10/21/2014 08:30      62    53.0      0.10        65.4      65.9      55.0       3       5     195     185    1012    0.00
    10/21/2014 08:40      58    52.8      0.10        66.7      67.8      55.0       3       5     172     174    1012    0.00
    10/21/2014 08:50      57    52.3      0.10        67.7      68.4      55.0       3       4     178     150    1012    0.00
    10/21/2014 09:00      54    51.9      0.10        69.0      69.4      55.0       2       4     171     186    1012    0.00
    10/21/2014 09:10      53    51.2      0.10        69.7      70.4      55.0       3       6     189     196    1012    0.00
    10/21/2014 09:20      47    50.8      0.10        70.7      71.8      55.0       2       4     191     209    1012    0.00
    10/21/2014 09:30      43    49.6      0.10        72.2      72.9      55.0       1       3     205     234    1012    0.00
    10/21/2014 09:40      43    49.2      0.10        72.8      73.4      55.0       2       4     212     218    1012    0.00
    10/21/2014 09:50      38    48.2      0.10        73.5      73.9      55.0       2       4     163     136    1012    0.00
    10/21/2014 10:00      35    46.3      0.10        74.4      75.3      55.0       2       4     151     148    1012    0.00
    10/21/2014 10:10      34    45.4      0.10        75.4      75.7      55.0       1       3     112     166    1012    0.00
    10/21/2014 10:20      30    44.9      0.10        76.3      76.9      55.0       2       4     233     285    1012    0.00
    10/21/2014 10:30      27    42.9      0.10        77.9      78.3      55.0       2       4     181     176    1012    0.00
    10/21/2014 10:40      26    40.6      0.10        77.8      78.5      55.0       1       3     152     206    1012    0.00
    10/21/2014 10:50      25    41.2      0.10        78.6      79.0      55.0       3       7     197     197    1012    0.00
    10/21/2014 11:00      24    40.9      0.10        78.3      79.6      55.0       3       8     211     209    1012    0.00
    10/21/2014 11:10      25    40.1      0.10        78.6      79.6      55.0       2       6     197     138    1011    0.00
    10/21/2014 11:20      24    40.0      0.10        79.6      80.4      55.0       2       5     175     242    1011    0.00
    10/21/2014 11:30      23    39.4      0.10        80.5      80.8      55.0       2       4      90      26    1011    0.00
    10/21/2014 11:40      24    39.5      0.10        79.7      80.8      55.0       2       4      24       2    1011    0.00
    10/21/2014 11:50      23    40.7      0.10        80.4      81.2      55.0       3       7     164     153    1011    0.00
    10/21/2014 12:00      24    39.6      0.10        81.0      81.4      55.0       2       6     161     162    1010    0.00
    10/21/2014 12:10      25    40.9      0.10        81.0      81.5      55.0       4       7     180     164    1010    0.00
    10/21/2014 12:20      23    40.2      0.10        81.4      82.1      55.0       3       7     229     251    1010    0.00
    10/21/2014 12:30      23    39.2      0.10        81.9      82.4      55.0       3       7     213     205    1010    0.00
    10/21/2014 12:40      25    40.8      0.10        81.0      82.4      55.0       3       8     174     187    1010    0.00
    10/21/2014 12:50      24    40.5      0.10        81.2      82.4      55.0       3       8     211     174    1009    0.00
    10/21/2014 13:00      23    38.4      0.10        81.2      82.4      55.0       2       6     193     190    1009    0.00
    10/21/2014 13:10      23    39.2      0.10        80.3      82.4      55.0       3       6     227     261    1009    0.00
    10/21/2014 13:20      22    40.4      0.10        79.6      82.4      55.0       3       4     168     171    1009    0.00
    10/21/2014 13:30      20    38.8      0.10        80.8      82.4      55.0       0       2     169     178    1009    0.00
    10/21/2014 13:40      18    38.3      0.10        83.0      83.7      55.0       1       5     152     176    1009    0.00
    10/21/2014 13:50      32    41.2      0.10        83.9      84.4      55.0       4      10     148     168    1009    0.00
    10/21/2014 14:00      37    50.3      0.10        80.7      84.4      55.0       6      11     160     148    1009    0.00
    10/21/2014 14:10      36    50.4      0.10        79.9      84.4      55.0       4      11     162     130    1009    0.00
    10/21/2014 14:20      36    50.7      0.10        80.0      84.4      55.0       4       7     129     164    1009    0.00
    10/21/2014 14:30      29    49.2      0.10        79.6      84.4      55.0       5      11     121     152    1009    0.00
    10/21/2014 14:40      28    44.3      0.10        79.2      84.4      55.0       4      10     246     253    1009    0.00
    10/21/2014 14:50      28    44.5      0.10        79.9      84.4      55.0       4       9     260     253    1009    0.00
    10/21/2014 15:00      29    44.9      0.10        79.5      84.4      55.0       4      10     260     263    1009    0.00
    10/21/2014 15:10      32    45.0      0.10        79.7      84.4      55.0       3       8     263     252    1009    0.00
    10/21/2014 15:20      30    44.9      0.10        79.2      84.4      55.0       3       9     254     253    1009    0.00
    10/21/2014 15:30      29    45.1      0.10        79.4      84.4      55.0       3       6     243     242    1009    0.00
    10/21/2014 15:40      29    44.8      0.10        79.3      84.4      55.0       2       5     237     236    1009    0.00
    10/21/2014 15:50      31    44.8      0.10        78.4      84.4      55.0       2       5     234     241    1009    0.00
    10/21/2014 16:00      31    44.7      0.10        77.7      84.4      55.0       1       4     271     253    1009    0.00
    10/21/2014 16:10      32    44.7      0.10        77.4      84.4      55.0       2       7     223     184    1009    0.00
    10/21/2014 16:20      33    45.1      0.10        76.8      84.4      55.0       3       6     199     188    1009    0.00
    10/21/2014 16:30      32    44.8      0.10        76.6      84.4      55.0       2       6     254     227    1009    0.00
    10/21/2014 16:40      33    45.1      0.10        76.5      84.4      55.0       2       4     257     245    1009    0.00
    10/21/2014 16:50      34    45.7      0.10        76.3      84.4      55.0       2       6     273     248    1009    0.00
    10/21/2014 17:00      36    46.1      0.10        75.7      84.4      55.0       3       7     270     253    1009    0.00
    10/21/2014 17:10      39    46.7      0.10        74.8      84.4      55.0       3       7     284     301    1009    0.00
    10/21/2014 17:20      41    47.8      0.10        73.7      84.4      55.0       2       5     288     289    1009    0.00
    10/21/2014 17:30      43    48.5      0.10        72.9      84.4      55.0       2       5     278     246    1009    0.00
    10/21/2014 17:40      45    49.1      0.10        72.3      84.4      55.0       1       3     293     283    1009    0.00
    10/21/2014 17:50      47    49.7      0.10        71.6      84.4      55.0       0       2     292     292    1009    0.00
    10/21/2014 18:00      49    50.1      0.10        70.8      84.4      55.0       0       1      32      32    1010    0.00
    10/21/2014 18:10      49    50.4      0.10        70.4      84.4      55.0       1       2     199     204    1010    0.00
    10/21/2014 18:20      50    50.4      0.10        70.0      84.4      55.0       1       2     172     180    1010    0.00
    10/21/2014 18:30      51    50.6      0.10        69.4      84.4      55.0       0       2     118      58    1010    0.00
    10/21/2014 18:40      52    50.9      0.10        69.7      84.4      55.0       0       1      72      79    1010    0.00
    10/21/2014 18:50      57    53.2      0.10        69.9      84.4      55.0       2       4      56      69    1010    0.00
    10/21/2014 19:00      60    54.5      0.10        69.9      84.4      55.0       1       3      76      71    1010    0.00
    10/21/2014 19:10      61    55.1      0.10        69.4      84.4      55.0       1       3      90     104    1010    0.00
    10/21/2014 19:20      53    53.5      0.10        69.0      84.4      55.0       2       3      73      65    1010    0.00
    10/21/2014 19:30      42    48.8      0.10        69.1      84.4      55.0       3       6      58      38    1010    0.00
    10/21/2014 19:40      36    43.4      0.10        69.6      84.4      55.0       4       7      48      44    1010    0.00
    10/21/2014 19:50      35    41.4      0.10        69.7      84.4      55.0       3       6      41      44    1010    0.00
    10/21/2014 20:00      34    40.7      0.10        69.8      84.4      55.0       3       6      37      50    1010    0.00
    10/21/2014 20:10      40    41.1      0.10        69.5      84.4      55.0       1       3     340      32    1010    0.00
    10/21/2014 20:20      49    44.2      0.10        67.7      84.4      55.0       0       2     305     290    1010    0.00
    10/21/2014 20:30      56    49.1      0.10        66.4      84.4      55.0       1       3     313     303    1010    0.00
    10/21/2014 20:40      56    50.2      0.10        66.3      84.4      55.0       1       4     305     292    1011    0.00
    10/21/2014 20:50      57    50.2      0.10        65.9      84.4      55.0       1       2     311     282    1011    0.00
    10/21/2014 21:00      58    50.3      0.10        65.6      84.4      55.0       1       2     332     341    1011    0.00
    10/21/2014 21:10      58    49.9      0.10        65.3      84.4      55.0       0       2     298     233    1011    0.00
    10/21/2014 21:20      59    50.1      0.10        64.6      84.4      55.0       0       2       7      36    1011    0.00
    10/21/2014 21:30      62    50.0      0.10        64.0      84.4      55.0       0       1      43      80    1011    0.00
    10/21/2014 21:40      61    50.2      0.10        63.3      84.4      55.0       1       4     297     294    1011    0.00
    10/21/2014 21:50      63    50.3      0.10        63.6      84.4      55.0       1       3     250     237    1011    0.00
    10/21/2014 22:00      62    50.5      0.10        63.5      84.4      55.0       2       4     138     125    1011    0.00
    10/21/2014 22:10      61    50.3      0.10        64.3      84.4      55.0       1       3     140      83    1011    0.00
    10/21/2014 22:20      57    49.9      0.10        64.0      84.4      55.0       1       5      63      72    1011    0.00
    10/21/2014 22:30      34    42.1      0.10        65.9      84.4      55.0       4       7      31      48    1011    0.00
    10/21/2014 22:40      50    40.6      0.10        67.3      84.4      55.0       2       6     284     263    1011    0.00
    10/21/2014 22:50      57    47.6      0.10        64.7      84.4      55.0       1       4     260     264    1011    0.00
    10/21/2014 23:00      63    49.1      0.10        62.9      84.4      55.0       1       3     312     277    1011    0.00
    10/21/2014 23:10      64    50.0      0.10        62.5      84.4      55.0       1       3     308     338    1011    0.00
    10/21/2014 23:20      63    50.2      0.10        62.4      84.4      55.0       1       4      76     262    1011    0.00
    10/21/2014 23:30      66    50.0      0.10        61.6      84.4      55.0       1       2     221     266    1011    0.00
    10/21/2014 23:40      67    50.0      0.10        61.0      84.4      55.0       1       3     301     251    1011    0.00
    10/21/2014 23:50      68    50.1      0.10        61.0      84.4      55.0       1       3     295     342    1011    0.00
    10/22/2014 00:00      69    50.0      0.10        60.7      84.4      55.0       1       3     309     350    1011    0.00
    10/22/2014 00:10      68    50.0      0.10        60.5      60.9      59.8       0       2     330     341    1011    0.00
    10/22/2014 00:20      70    49.9      0.10        59.8      60.9      59.6       1       3     293     286    1011    0.00
    10/22/2014 00:30      70    49.9      0.10        59.8      60.9      59.5       2       4     295     284    1011    0.00
    10/22/2014 00:40      71    50.1      0.10        59.7      60.9      59.5       0       1     329     327    1011    0.00
    10/22/2014 00:50      70    50.1      0.10        59.7      60.9      59.5       0       1      39      49    1011    0.00
    10/22/2014 01:00      69    49.8      0.10        59.8      60.9      59.5       1       3      69     111    1011    0.00
    10/22/2014 01:10      69    49.5      0.10        59.7      60.9      59.2       0       1     147     304    1011    0.00
    10/22/2014 01:20      72    49.4      0.10        58.9      60.9      58.6       0       2     279     270    1011    0.00
    10/22/2014 01:30      72    49.5      0.10        58.5      60.9      58.0       0       2     291     295    1011    0.00
    10/22/2014 01:40      74    49.6      0.10        58.0      60.9      57.8       0       2     307     304    1011    0.00
    10/22/2014 01:50      74    49.4      0.10        57.7      60.9      57.4       1       3     281     291    1011    0.00
    10/22/2014 02:00      74    49.7      0.10        57.6      60.9      57.2       1       3     307     291    1011    0.00
    10/22/2014 02:10      74    49.9      0.10        58.1      60.9      57.2       1       3     320     339    1011    0.00
    10/22/2014 02:20      72    49.8      0.10        58.3      60.9      57.2       1       3     326     330    1011    0.00
    10/22/2014 02:30      70    49.2      0.10        58.5      60.9      57.2       1       2     325     335    1011    0.00
    10/22/2014 02:40      73    48.5      0.10        57.6      60.9      57.1       0       3     244     262    1011    0.00
    10/22/2014 02:50      74    49.0      0.10        57.0      60.9      56.9       1       3     248     256    1011    0.00
    10/22/2014 03:00      75    49.2      0.10        57.1      60.9      56.9       1       2     195     190    1011    0.00
    10/22/2014 03:10      75    49.1      0.10        56.9      60.9      56.7       1       2     267     274    1011    0.00
    10/22/2014 03:20      76    49.3      0.10        56.9      60.9      56.6       1       3     292     294    1011    0.00
    10/22/2014 03:30      76    48.7      0.10        56.3      60.9      55.6       1       3     141     149    1011    0.00
    10/22/2014 03:40      80    48.9      0.10        55.5      60.9      55.2       0       1      82      90    1011    0.00
    10/22/2014 03:50      80    49.3      0.10        55.4      60.9      55.2       0       2     135     181    1011    0.00
    10/22/2014 04:00      81    49.2      0.10        55.2      60.9      55.0       1       3     323     343    1011    0.00
    10/22/2014 04:10      79    49.3      0.10        55.4      60.9      55.0       1       2     325     331    1011    0.00
    10/22/2014 04:20      79    49.0      0.10        55.3      60.9      55.0       1       2     332     289    1011    0.00
    10/22/2014 04:30      77    48.9      0.10        55.4      60.9      55.0       1       3     324     312    1011    0.00
    10/22/2014 04:40      74    48.4      0.10        55.9      60.9      55.0       2       3     335     319    1011    0.00
    10/22/2014 04:50      72    47.5      0.10        56.0      60.9      55.0       0       1     346     333    1011    0.00
    10/22/2014 05:00      73    46.6      0.10        55.6      60.9      54.8       0       1      66      80    1011    0.00
    10/22/2014 05:10      72    46.7      0.10        55.0      60.9      54.7       1       3      46      74    1011    0.00
    10/22/2014 05:20      73    46.3      0.10        55.1      60.9      54.7       0       1     290     285    1012    0.00
    10/22/2014 05:30      71    46.3      0.10        55.2      60.9      54.7       1       2     326     334    1012    0.00
    10/22/2014 05:40      70    45.6      0.10        55.4      60.9      54.7       1       2     339     331    1012    0.00
    10/22/2014 05:50      71    45.4      0.10        54.9      60.9      54.7       0       2     356     330    1012    0.00
    10/22/2014 06:00      71    45.3      0.10        54.8      60.9      54.2       0       1      75     344    1012    0.00
    10/22/2014 06:10      70    45.5      0.10        54.6      60.9      54.2       0       1     332     328    1012    0.00
    10/22/2014 06:20      69    45.3      0.10        55.2      60.9      54.2       1       3     333     331    1012    0.00
    10/22/2014 06:30      72    45.2      0.10        54.5      60.9      54.0       0       0       0     322    1012    0.00
    10/22/2014 06:40      72    45.5      0.10        54.3      60.9      54.0       0       0       0     203    1012    0.00
    10/22/2014 06:50      67    45.8      0.10        55.6      60.9      54.0       1       2     334     333    1012    0.00
    10/22/2014 07:00      68    45.8      0.10        56.3      60.9      54.0       0       1     127     127    1013    0.00
    10/22/2014 07:10      66    46.2      0.10        57.0      60.9      54.0       0       1     219     219    1013    0.00
    10/22/2014 07:20      61    46.6      0.10        58.9      60.9      54.0       0       1     254     275    1013    0.00
    10/22/2014 07:30      59    47.5      0.10        61.5      62.7      54.0       1       2     187     178    1013    0.00
    10/22/2014 07:40      54    48.2      0.10        63.6      64.7      54.0       2       2     180     182    1013    0.00
    10/22/2014 07:50      48    47.2      0.10        65.3      66.5      54.0       1       2     169     167    1013    0.00
    10/22/2014 08:00      50    45.9      0.10        66.0      66.6      54.0       2       2     188     185    1013    0.00
    10/22/2014 08:10      42    45.1      0.10        67.0      67.7      54.0       1       3     191     202    1013    0.00
    10/22/2014 08:20      40    42.7      0.10        67.5      67.8      54.0       2       3     194     168    1013    0.00
    10/22/2014 08:30      39    42.9      0.10        68.3      68.7      54.0       2       5     213     198    1013    0.00
    10/22/2014 08:40      38    42.9      0.10        68.6      69.5      54.0       3       5     176     206    1013    0.00
    10/22/2014 08:50      36    41.8      0.10        69.8      70.7      54.0       3       4     164     162    1013    0.00
    10/22/2014 09:00      32    41.4      0.10        70.9      71.3      54.0       2       3     134     158    1013    0.00
    10/22/2014 09:10      31    40.9      0.10        72.3      73.4      54.0       2       3     171     157    1013    0.00
    10/22/2014 09:20      31    41.2      0.10        73.1      74.1      54.0       2       3     176     167    1013    0.00
    10/22/2014 09:30      30    41.5      0.10        74.3      74.7      54.0       3       5     155     181    1013    0.00
    10/22/2014 09:40      31    41.2      0.10        73.7      74.7      54.0       3       5     165     172    1013    0.00
    10/22/2014 09:50      30    41.4      0.10        74.9      75.8      54.0       2       6     167     152    1013    0.00
    10/22/2014 10:00      26    40.5      0.10        76.5      77.0      54.0       2       4     148     143    1013    0.00
    10/22/2014 10:10      24    38.1      0.10        77.5      78.2      54.0       3       6     170     174    1013    0.00
    10/22/2014 10:20      25    39.1      0.10        78.7      79.7      54.0       4       6     154     166    1013    0.00
    10/22/2014 10:30      23    39.4      0.10        80.5      81.0      54.0       2       7     131     145    1013    0.00
    10/22/2014 10:40      21    39.1      0.10        81.1      81.4      54.0       2       6     105     132    1013    0.00
    10/22/2014 10:50      23    37.4      0.10        80.3      81.4      54.0       3       7     108     151    1013    0.00
    10/22/2014 11:00      21    38.7      0.10        80.8      81.6      54.0       5       8     152     149    1013    0.00
    10/22/2014 11:10      21    37.2      0.10        81.3      81.9      54.0       5       7     159     161    1013    0.00
    10/22/2014 11:20      20    36.5      0.10        81.1      81.9      54.0       4       7     148     139    1012    0.00
    10/22/2014 11:30      17    34.6      0.10        82.1      83.1      54.0       2       4     107     143    1012    0.00
    10/22/2014 11:40      18    34.6      0.10        83.1      83.6      54.0       3       7     164     164    1012    0.00
    10/22/2014 11:50      17    34.9      0.10        83.7      84.4      54.0       4       7     156     174    1012    0.00
    10/22/2014 12:00      16    34.0      0.10        84.2      84.7      54.0       2       5     147     179    1012    0.00
    10/22/2014 12:10      16    34.4      0.10        84.4      85.2      54.0       4       7     166     157    1012    0.00
    10/22/2014 12:20      16    34.0      0.10        84.6      85.7      54.0       2       5     147     121    1012    0.00
    10/22/2014 12:30      16    33.6      0.10        85.5      85.9      54.0       2       6     150     163    1012    0.00
    10/22/2014 12:40      15    33.3      0.10        85.7      86.2      54.0       2       5     104      64    1012    0.00
    10/22/2014 12:50      15    33.3      0.10        85.8      86.4      54.0       2       6     172     147    1012    0.00
    10/22/2014 13:00      14    33.0      0.10        86.7      88.1      54.0       1       3     142     190    1011    0.00
    10/22/2014 13:10      14    33.3      0.10        87.7      88.4      54.0       3       6     171     177    1011    0.00
    10/22/2014 13:20      15    32.3      0.10        87.5      88.4      54.0       3       7     156     170    1011    0.00
    10/22/2014 13:30      13    31.8      0.10        88.5      89.4      54.0       2       5     155     180    1011    0.00
    10/22/2014 13:40      12    30.9      0.10        87.9      89.4      54.0       4       7     173     163    1011    0.00
    10/22/2014 13:50      11    30.0      0.10        88.7      89.4      54.0       3       6     181     188    1011    0.00
    10/22/2014 14:00      12    28.7      0.10        88.8      89.4      54.0       3       8     170     199    1011    0.00
    10/22/2014 14:10      11    29.3      0.10        89.7      90.0      54.0       3       7     162     177    1011    0.00
    10/22/2014 14:20      10    27.2      0.10        89.8      90.1      54.0       3       8     157     169    1011    0.00
    10/22/2014 14:30      11    26.4      0.10        89.6      90.2      54.0       2       8     173     149    1011    0.00
    10/22/2014 14:40      10    26.9      0.10        89.9      90.5      54.0       3       7     173     136    1011    0.00
    10/22/2014 14:50       9    25.3      0.10        89.0      90.5      54.0       4       7     180     168    1011    0.00
    10/22/2014 15:00      10    24.3      0.10        89.0      90.5      54.0       3       6     156     163    1011    0.00
    10/22/2014 15:10      10    24.7      0.10        89.1      90.5      54.0       5       7     186     194    1011    0.00
    10/22/2014 15:20      15    32.6      0.10        89.0      90.5      54.0       2       7     225     196    1011    0.00
    10/22/2014 15:30      17    36.8      0.10        88.2      90.5      54.0       4       8     268     257    1011    0.00
    10/22/2014 15:40      18    37.6      0.10        87.0      90.5      54.0       4       8     283     278    1011    0.00
    10/22/2014 15:50      18    37.1      0.10        86.3      90.5      54.0       2       6     279     254    1011    0.00
    10/22/2014 16:00      18    37.1      0.10        85.5      90.5      54.0       3       7     250     255    1011    0.00
    10/22/2014 16:10      20    37.3      0.10        84.8      90.5      54.0       1       4     247     257    1011    0.00
    10/22/2014 16:20      16    35.6      0.10        84.3      90.5      54.0       1       4     145     166    1011    0.00
    10/22/2014 16:30      15    31.5      0.10        84.0      90.5      54.0       2       7     111     115    1011    0.00
    10/22/2014 16:40      16    31.9      0.10        83.4      90.5      54.0       2       5     131     149    1011    0.00
    10/22/2014 16:50      17    31.8      0.10        82.5      90.5      54.0       2       4     148     152    1011    0.00
    10/22/2014 17:00      21    34.0      0.10        81.5      90.5      54.0       2       3     183     161    1011    0.00
    10/22/2014 17:10      22    40.3      0.10        80.9      90.5      54.0       2       3     152     138    1011    0.00
    10/22/2014 17:20      22    36.0      0.10        80.0      90.5      54.0       0       3     133     151    1012    0.00
    10/22/2014 17:30      29    39.9      0.10        78.8      90.5      54.0       0       2     326     354    1012    0.00
    10/22/2014 17:40      35    45.7      0.10        77.3      90.5      54.0       3       5     278     295    1012    0.00
    10/22/2014 17:50      36    46.9      0.10        76.2      90.5      54.0       1       3     273     313    1012    0.00
    10/22/2014 18:00      39    47.3      0.10        75.2      90.5      54.0       1       3     255     251    1012    0.00
    10/22/2014 18:10      41    48.5      0.10        74.3      90.5      54.0       0       1     267     220    1012    0.00
    10/22/2014 18:20      42    48.8      0.10        73.7      90.5      54.0       0       2     297     314    1012    0.00
    10/22/2014 18:30      44    49.4      0.10        73.0      90.5      54.0       0       2     245     258    1012    0.00
    10/22/2014 18:40      46    50.6      0.10        72.1      90.5      54.0       1       3     270     265    1012    0.00
    10/22/2014 18:50      49    49.9      0.10        71.7      90.5      54.0       0       0       0     202    1013    0.00
    10/22/2014 19:00      47    50.3      0.10        71.2      90.5      54.0       0       0       0     209    1013    0.00
    10/22/2014 19:10      49    50.1      0.10        71.0      90.5      54.0       0       1     132     135    1013    0.00
    10/22/2014 19:20      48    49.9      0.10        70.2      90.5      54.0       0       2     142     159    1013    0.00
    10/22/2014 19:30      47    48.9      0.10        70.2      90.5      54.0       1       2     140     153    1013    0.00
    10/22/2014 19:40      47    48.5      0.10        70.0      90.5      54.0       0       2     189     190    1013    0.00
    10/22/2014 19:50      48    48.9      0.10        69.4      90.5      54.0       0       0       0     163    1013    0.00
    10/22/2014 20:00      49    48.4      0.10        68.8      90.5      54.0       0       0       0     184    1013    0.00
    10/22/2014 20:10      49    48.8      0.10        68.6      90.5      54.0       0       1     354     354    1013    0.00
    10/22/2014 20:20      49    48.6      0.10        68.4      90.5      54.0       0       1     353     353    1013    0.00
    10/22/2014 20:30      53    48.6      0.10        67.4      90.5      54.0       0       0       0     127    1013    0.00
    10/22/2014 20:40      55    49.1      0.10        66.7      90.5      54.0       0       0       0     136    1013    0.00
    10/22/2014 20:50      55    49.5      0.10        65.8      90.5      54.0       0       0       0      93    1013    0.00
    10/22/2014 21:00      55    49.5      0.10        65.9      90.5      54.0       0       1     346     346    1013    0.00
    10/22/2014 21:10      56    49.8      0.10        66.3      90.5      54.0       0       1     340     344    1014    0.00
    10/22/2014 21:20      53    48.9      0.10        66.1      90.5      54.0       0       1     350     352    1014    0.00
    10/22/2014 21:30      55    48.6      0.10        65.6      90.5      54.0       0       0       0      16    1014    0.00
    10/22/2014 21:40      53    48.3      0.10        65.0      90.5      54.0       0       0       0      16    1014    0.00
    10/22/2014 21:50      55    47.4      0.10        64.6      90.5      54.0       0       0       0     334    1014    0.00
    10/22/2014 22:00      57    47.8      0.10        64.0      90.5      54.0       0       0       0      99    1014    0.00
    10/22/2014 22:10      58    48.4      0.10        63.6      90.5      54.0       0       0       0     128    1014    0.00
    10/22/2014 22:20      58    48.3      0.10        63.3      90.5      54.0       0       0       0     206    1014    0.00
    10/22/2014 22:30      57    47.8      0.10        63.4      90.5      54.0       0       0       0     345    1014    0.00
    10/22/2014 22:40      55    47.4      0.10        63.5      90.5      54.0       0       1     330     331    1014    0.00
    10/22/2014 22:50      56    47.0      0.10        63.3      90.5      54.0       0       0       0     332    1014    0.00
    10/22/2014 23:00      57    47.1      0.10        62.6      90.5      54.0       0       0       0      87    1014    0.00
    10/22/2014 23:10      58    47.8      0.10        62.6      90.5      54.0       0       1     353     353    1014    0.00
    10/22/2014 23:20      57    47.4      0.10        62.6      90.5      54.0       0       1     347     346    1014    0.00
    10/22/2014 23:30      58    46.8      0.10        62.4      90.5      54.0       0       1     342     343    1014    0.00
    10/22/2014 23:40      56    46.8      0.10        62.3      90.5      54.0       0       1     332     328    1014    0.00
    10/22/2014 23:50      56    46.5      0.10        62.2      90.5      54.0       0       0       0     328    1014    0.00
    10/23/2014 00:00      60    46.6      0.10        61.5      90.5      54.0       0       0       0     321    1014    0.00
    10/23/2014 00:10      62    47.7      0.10        60.8      61.1      60.4       0       1     335     338    1014    0.00
    10/23/2014 00:20      59    47.1      0.10        61.1      61.4      60.4       1       1     331     334    1014    0.00
    10/23/2014 00:30      61    46.8      0.10        61.1      61.5      60.4       0       1     334     334    1014    0.00
    10/23/2014 00:40      63    47.0      0.10        60.0      61.5      59.6       0       0       0     334    1014    0.00
    10/23/2014 00:50      64    47.3      0.10        59.7      61.5      59.5       0       0     330     331    1014    0.00
    10/23/2014 01:00      63    47.5      0.10        60.0      61.5      59.5       1       2     329     332    1014    0.00
    10/23/2014 01:10      62    47.3      0.10        60.3      61.5      59.5       0       1     339     326    1014    0.00
    10/23/2014 01:20      61    47.0      0.10        60.2      61.5      59.5       1       2     345     340    1014    0.00
    10/23/2014 01:30      62    46.6      0.10        60.3      61.5      59.5       1       1     340     339    1014    0.00
    10/23/2014 01:40      64    46.9      0.10        59.4      61.5      59.0       0       0       0     348    1014    0.00
    10/23/2014 01:50      64    46.8      0.10        58.9      61.5      58.6       0       0       0      13    1013    0.00
    10/23/2014 02:00      63    46.7      0.10        58.9      61.5      58.6       0       0       0      13    1013    0.00
    10/23/2014 02:10      65    46.6      0.10        58.5      61.5      58.0       0       1     292     290    1013    0.00
    10/23/2014 02:20      63    46.6      0.10        58.4      61.5      58.0       0       1     320     319    1013    0.00
    10/23/2014 02:30      64    46.0      0.10        58.4      61.5      58.0       0       0       0     319    1013    0.00
    10/23/2014 02:40      67    46.3      0.10        57.5      61.5      57.2       0       0       0     126    1013    0.00
    10/23/2014 02:50      67    46.5      0.10        57.2      61.5      57.1       0       0       0     126    1013    0.00
    10/23/2014 03:00      65    46.5      0.10        57.4      61.5      57.1       1       2     323     332    1013    0.00
    10/23/2014 03:10      64    46.0      0.10        57.8      61.5      57.1       0       2     330     328    1013    0.00
    10/23/2014 03:20      64    45.8      0.10        57.9      61.5      57.1       0       1     345     347    1013    0.00
    10/23/2014 03:30      64    45.7      0.10        57.9      61.5      57.1       0       1     351     341    1013    0.00
    10/23/2014 03:40      63    45.6      0.10        57.9      61.5      57.1       0       1       0       0    1013    0.00
    10/23/2014 03:50      63    45.5      0.10        58.0      61.5      57.1       0       1     351     350    1013    0.00
    10/23/2014 04:00      64    45.3      0.10        57.7      61.5      57.1       0       0       0     352    1013    0.00
    10/23/2014 04:10      65    45.2      0.10        57.3      61.5      57.0       0       0       0     352    1013    0.00
    10/23/2014 04:20      68    45.9      0.10        56.8      61.5      56.4       0       0       0     351    1013    0.00
    10/23/2014 04:30      67    46.0      0.10        56.6      61.5      56.2       0       1     335     334    1013    0.00
    10/23/2014 04:40      64    45.4      0.10        57.1      61.5      56.2       1       1     338     340    1013    0.00
    10/23/2014 04:50      66    45.4      0.10        56.8      61.5      56.2       0       0       0     344    1013    0.00
    10/23/2014 05:00      66    45.5      0.10        56.4      61.5      56.1       0       1     348     349    1013    0.00
    10/23/2014 05:10      66    45.3      0.10        56.3      61.5      56.1       0       1     347     343    1013    0.00
    10/23/2014 05:20      66    45.2      0.10        56.4      61.5      56.1       0       1     340     343    1013    0.00
    10/23/2014 05:30      64    45.2      0.10        56.9      61.5      56.1       1       2     342     339    1013    0.00
    10/23/2014 05:40      64    44.9      0.10        57.2      61.5      56.1       0       2     349     348    1013    0.00
    10/23/2014 05:50      62    44.8      0.10        57.1      61.5      56.1       1       2     343     329    1013    0.00
    10/23/2014 06:00      62    45.0      0.10        57.5      61.5      56.1       1       2     345     336    1013    0.00
    10/23/2014 06:10      61    44.8      0.10        58.3      61.5      56.1       1       2     335     334    1013    0.00
    10/23/2014 06:20      63    45.0      0.10        57.7      61.5      56.1       1       1     334     336    1014    0.00
    10/23/2014 06:30      63    45.1      0.10        57.6      61.5      56.1       0       2     342     341    1014    0.00
    10/23/2014 06:40      63    45.5      0.10        57.8      61.5      56.1       0       2     329     334    1014    0.00
    10/23/2014 06:50      64    45.6      0.10        57.7      61.5      56.1       0       0       0     332    1014    0.00
    10/23/2014 07:00      63    45.8      0.10        57.9      61.5      56.1       0       0       0     266    1014    0.00
    10/23/2014 07:10      62    45.9      0.10        58.8      61.5      56.1       0       1     260     259    1014    0.00
    10/23/2014 07:20      60    46.2      0.10        59.8      61.5      56.1       1       2     256     253    1014    0.00
    10/23/2014 07:30      56    47.0      0.10        61.8      63.4      56.1       0       1     244     246    1014    0.00
    10/23/2014 07:40      52    48.1      0.10        65.1      66.4      56.1       0       2     196     203    1015    0.00
    10/23/2014 07:50      47    47.6      0.10        66.8      67.7      56.1       1       2     184     190    1015    0.00
    10/23/2014 08:00      43    45.9      0.10        68.3      69.2      56.1       1       1     184     182    1015    0.00
    10/23/2014 08:10      40    45.1      0.10        69.2      69.7      56.1       0       1     246     260    1015    0.00
    10/23/2014 08:20      40    45.1      0.10        70.0      70.8      56.1       1       2     210     216    1015    0.00
    10/23/2014 08:30      40    45.4      0.10        71.0      71.2      56.1       2       3     196     200    1015    0.00
    10/23/2014 08:40      35    44.5      0.10        72.0      73.0      56.1       1       2     191     190    1015    0.00
    10/23/2014 08:50      35    44.5      0.10        73.4      73.7      56.1       2       3     190     183    1015    0.00
    10/23/2014 09:00      34    44.0      0.10        73.8      74.5      56.1       2       3     213     197    1015    0.00
    10/23/2014 09:10      33    43.9      0.10        75.0      75.5      56.1       2       4     209     231    1015    0.00
    10/23/2014 09:20      32    44.0      0.10        75.3      76.3      56.1       2       4     198     212    1015    0.00
    10/23/2014 09:30      29    42.7      0.10        76.4      76.9      56.1       1       3     245     249    1015    0.00
    10/23/2014 09:40      27    41.9      0.10        77.2      77.6      56.1       1       3     233     258    1015    0.00
    10/23/2014 09:50      24    41.2      0.10        78.9      80.0      56.1       1       3     213     192    1015    0.00
    10/23/2014 10:00      24    40.6      0.10        79.8      80.4      56.1       1       2     204     231    1015    0.00
    10/23/2014 10:10      22    39.1      0.10        81.6      82.3      56.1       1       3     173     192    1015    0.00
    10/23/2014 10:20      21    39.6      0.10        82.1      83.2      56.1       1       3     183     167    1015    0.00
    10/23/2014 10:30      18    38.2      0.10        83.0      83.5      56.1       1       4     203     193    1015    0.00
    10/23/2014 10:40      18    37.0      0.10        83.4      84.2      56.1       2       5     170     140    1015    0.00
    10/23/2014 10:50      17    35.8      0.10        83.9      84.5      56.1       2       6     133     103    1015    0.00
    10/23/2014 11:00      17    34.4      0.10        83.9      84.5      56.1       3       5      75      79    1014    0.00
    10/23/2014 11:10      17    35.1      0.10        84.4      85.1      56.1       2       4     104      86    1014    0.00
    10/23/2014 11:20      16    35.1      0.10        85.9      86.5      56.1       1       4     120      66    1014    0.00
    10/23/2014 11:30      16    34.8      0.10        85.9      86.5      56.1       2       6     132     159    1014    0.00
    10/23/2014 11:40      16    34.6      0.10        86.2      86.5      56.1       2       5     178     131    1014    0.00
    10/23/2014 11:50      16    35.1      0.10        87.0      87.4      56.1       2       6     164     129    1014    0.00
    10/23/2014 12:00      15    35.6      0.10        87.7      88.2      56.1       2       6     138      74    1014    0.00
    10/23/2014 12:10      15    33.8      0.10        86.8      88.2      56.1       2       5      83      74    1014    0.00
    10/23/2014 12:20      15    35.5      0.10        87.9      88.3      56.1       2       5     101     142    1013    0.00
    10/23/2014 12:30      14    34.7      0.10        88.3      88.8      56.1       2       6     124      87    1013    0.00
    10/23/2014 12:40      13    27.0      0.10        89.0      89.6      56.1       4       7     164     172    1013    0.00
    10/23/2014 12:50      11    30.6      0.10        89.3      89.7      56.1       3       5     135     167    1013    0.00
    10/23/2014 13:00      11    28.3      0.10        89.0      89.7      56.1       3       8     115     149    1013    0.00
    10/23/2014 13:10      12    26.6      0.10        89.4      90.3      56.1       4       8     143     151    1013    0.00
    10/23/2014 13:20      12    30.3      0.10        89.3      90.3      56.1       3       8     122     141    1013    0.00
    10/23/2014 13:30      13    32.2      0.10        89.7      90.3      56.1       3       7     106      62    1012    0.00
    10/23/2014 13:40      11    31.0      0.10        89.4      90.3      56.1       3       8     131     146    1012    0.00
    10/23/2014 13:50      11    27.2      0.10        89.5      90.3      56.1       5       8     143     136    1012    0.00
    10/23/2014 14:00       9    25.6      0.10        89.5      90.3      56.1       4       6     125      97    1012    0.00
    10/23/2014 14:10      10    22.9      0.10        88.7      90.3      56.1       3       7     115     118    1012    0.00
    10/23/2014 14:20      11    26.0      0.10        88.8      90.3      56.1       2       6     117     138    1012    0.00
    10/23/2014 14:30      10    25.5      0.10        88.8      90.3      56.1       2       6     102      67    1012    0.00
    10/23/2014 14:40      11    25.1      0.10        88.3      90.3      56.1       3       5     120     117    1012    0.00
    10/23/2014 14:50      11    26.1      0.10        87.7      90.3      56.1       3       6     131     154    1012    0.00
    10/23/2014 15:00      10    26.1      0.10        88.0      90.3      56.1       2       7     127     141    1012    0.00
    10/23/2014 15:10      11    26.2      0.10        87.8      90.3      56.1       2       5     119      93    1012    0.00
    10/23/2014 15:20      10    25.3      0.10        88.2      90.3      56.1       2       6     117     149    1012    0.00
    10/23/2014 15:30      10    25.6      0.10        87.8      90.3      56.1       3       6     122     129    1012    0.00
    10/23/2014 15:40      10    23.6      0.10        87.6      90.3      56.1       3       6     101     107    1012    0.00
    10/23/2014 15:50      11    24.3      0.10        87.3      90.3      56.1       1       5     101      75    1012    0.00
    10/23/2014 16:00      10    23.8      0.10        86.7      90.3      56.1       2       7     100      94    1012    0.00
    10/23/2014 16:10      12    24.8      0.10        86.0      90.3      56.1       2       6     107     100    1012    0.00
    10/23/2014 16:20      11    25.4      0.10        85.4      90.3      56.1       2       6      99      90    1012    0.00
    10/23/2014 16:30      11    25.1      0.10        85.0      90.3      56.1       2       5     104      91    1012    0.00
    10/23/2014 16:40      12    25.2      0.10        84.3      90.3      56.1       1       5     105      73    1012    0.00
    10/23/2014 16:50      12    25.7      0.10        83.6      90.3      56.1       1       4     105      63    1012    0.00
    10/23/2014 17:00      13    26.6      0.10        82.6      90.3      56.1       1       3      98     104    1012    0.00
    10/23/2014 17:10      14    27.4      0.10        81.5      90.3      56.1       2       4      88      71    1012    0.00
    10/23/2014 17:20      14    27.2      0.10        80.3      90.3      56.1       1       3      83      65    1012    0.00
    10/23/2014 17:30      17    27.6      0.10        79.0      90.3      56.1       0       2     341     313    1012    0.00
    10/23/2014 17:40      17    28.4      0.10        76.7      90.3      56.1       1       2     300     290    1012    0.00
    10/23/2014 17:50      16    27.4      0.10        76.0      90.3      56.1       1       2       6      23    1012    0.00
    10/23/2014 18:00      17    27.2      0.10        75.2      90.3      56.1       0       2      23      31    1012    0.00
    10/23/2014 18:10      16    26.7      0.10        74.8      90.3      56.1       1       3      43      44    1012    0.00
    10/23/2014 18:20      17    26.8      0.10        75.8      90.3      56.1       1       2      30      -1    1012    0.00
    10/23/2014 18:30      18    27.8      0.10        74.8      90.3      56.1       0       2      12      21    1012    0.00
    10/23/2014 18:40      16    26.7      0.10        73.8      90.3      56.1       0       3      14       0    1013    0.00
    10/23/2014 18:50      16    25.6      0.10        74.2      90.3      56.1       1       3      26      24    1013    0.00
    10/23/2014 19:00      17    25.5      0.10        73.9      90.3      56.1       0       2      24     350    1013    0.00
    10/23/2014 19:10      17    25.5      0.10        72.9      90.3      56.1       1       4      32      28    1013    0.00
    10/23/2014 19:20      22    28.2      0.10        72.4      90.3      56.1       1       4      32      47    1013    0.00
    10/23/2014 19:30      24    31.0      0.10        70.3      90.3      56.1       0       1       4       6    1013    0.00
    10/23/2014 19:40      24    30.6      0.10        68.8      90.3      56.1       0       0       0     337    1013    0.00
    10/23/2014 19:50      23    29.9      0.10        68.9      90.3      56.1       0       1     354     345    1013    0.00
    10/23/2014 20:00      26    30.9      0.10        69.1      90.3      56.1       0       0       0     340    1013    0.00
    10/23/2014 20:10      28    32.2      0.10        67.3      90.3      56.1       0       0       0     334    1013    0.00
    10/23/2014 20:20      28    32.7      0.10        66.6      90.3      56.1       0       0       0     320    1013    0.00
    10/23/2014 20:30      28    31.9      0.10        66.2      90.3      56.1       0       0       0     301    1013    0.00
    10/23/2014 20:40      27    31.6      0.10        65.7      90.3      56.1       0       0       0     298    1013    0.00
    10/23/2014 20:50      28    31.4      0.10        65.4      90.3      56.1       0       1     338     339    1013    0.00
    10/23/2014 21:00      28    31.6      0.10        65.6      90.3      56.1       0       0     318     318    1013    0.00
    10/23/2014 21:10      28    31.9      0.10        65.5      90.3      56.1       0       1     312     312    1013    0.00
    10/23/2014 21:20      29    32.0      0.10        65.4      90.3      56.1       0       0       0     314    1013    0.00
    10/23/2014 21:30      32    33.0      0.10        64.7      90.3      56.1       0       0       0     316    1013    0.00
    10/23/2014 21:40      34    34.3      0.10        63.5      90.3      56.1       0       0       0     330    1013    0.00
    10/23/2014 21:50      35    34.6      0.10        63.1      90.3      56.1       0       0       0     319    1014    0.00
    10/23/2014 22:00      35    34.4      0.10        62.6      90.3      56.1       0       0       0     320    1014    0.00
    10/23/2014 22:10      37    34.9      0.10        62.5      90.3      56.1       0       0       0     318    1014    0.00
    10/23/2014 22:20      37    36.0      0.10        62.7      90.3      56.1       0       0       0     313    1014    0.00
    10/23/2014 22:30      39    36.9      0.10        62.1      90.3      56.1       0       0       0     321    1014    0.00
    10/23/2014 22:40      38    36.3      0.10        62.0      90.3      56.1       0       0       0     319    1014    0.00
    10/23/2014 22:50      39    36.6      0.10        62.0      90.3      56.1       0       0       0     336    1014    0.00
    10/23/2014 23:00      42    37.6      0.10        61.9      90.3      56.1       0       0       0     347    1014    0.00
    10/23/2014 23:10      40    37.8      0.10        61.9      90.3      56.1       0       0       0       6    1014    0.00
    10/23/2014 23:20      42    38.3      0.10        61.8      90.3      56.1       0       0       0      30    1014    0.00
    10/23/2014 23:30      43    38.8      0.10        61.5      90.3      56.1       0       0       0     352    1014    0.00
    10/23/2014 23:40      47    39.1      0.10        61.1      90.3      56.1       0       0     345     344    1014    0.00
    10/23/2014 23:50      47    40.4      0.10        61.0      90.3      56.1       0       0       0     346    1014    0.00
    10/24/2014 00:00      48    40.6      0.10        60.5      90.3      56.1       0       0       0     350    1014    0.00
    10/24/2014 00:10      50    41.3      0.10        60.4      60.6      60.3       0       0       0     349    1014    0.00
    10/24/2014 00:20      51    41.8      0.10        60.2      60.6      60.0       0       0       0     348    1014    0.00
    10/24/2014 00:30      52    42.4      0.10        60.1      60.6      59.9       0       0       0     346    1014    0.00
    10/24/2014 00:40      52    42.6      0.10        60.2      60.6      59.9       0       0     333     332    1014    0.00
    10/24/2014 00:50      52    42.8      0.10        60.2      60.6      59.9       0       1     326     332    1014    0.00
    10/24/2014 01:00      54    42.5      0.10        60.1      60.6      59.5       0       0     329     328    1014    0.00
    10/24/2014 01:10      54    42.9      0.10        59.4      60.6      59.1       0       0       0     332    1014    0.00
    10/24/2014 01:20      55    42.5      0.10        59.0      60.6      58.8       0       0       0     333    1014    0.00
    10/24/2014 01:30      55    42.8      0.10        58.9      60.6      58.6       0       1      56      59    1014    0.00
    10/24/2014 01:40      56    42.7      0.10        58.8      60.6      58.5       0       0       0      44    1014    0.00
    10/24/2014 01:50      57    42.7      0.10        58.2      60.6      57.9       0       0       0       7    1014    0.00
    10/24/2014 02:00      57    42.8      0.10        57.8      60.6      57.6       0       0       0     343    1014    0.00
    10/24/2014 02:10      57    42.6      0.10        57.7      60.6      57.5       0       0       0     346    1014    0.00
    10/24/2014 02:20      56    42.8      0.10        58.1      60.6      57.5       0       0     348     354    1014    0.00
    10/24/2014 02:30      58    42.6      0.10        57.8      60.6      57.3       0       1     332     332    1014    0.00
    10/24/2014 02:40      59    42.9      0.10        57.4      60.6      57.2       0       0       0     335    1013    0.00
    10/24/2014 02:50      58    42.9      0.10        57.4      60.6      57.2       0       1     332     332    1013    0.00
    10/24/2014 03:00      58    42.4      0.10        57.5      60.6      57.2       0       1     326     330    1013    0.00
    10/24/2014 03:10      58    42.5      0.10        56.9      60.6      56.6       0       1     334     331    1013    0.00
    10/24/2014 03:20      57    42.4      0.10        56.9      60.6      56.6       1       2     342     341    1013    0.00
    10/24/2014 03:30      58    42.0      0.10        56.8      60.6      56.5       0       1     345     345    1013    0.00
    10/24/2014 03:40      58    42.3      0.10        56.7      60.6      56.4       0       1     341     336    1014    0.00
    10/24/2014 03:50      57    42.2      0.10        57.0      60.6      56.4       0       2     336     340    1014    0.00
    10/24/2014 04:00      57    41.8      0.10        56.7      60.6      56.4       0       1     342     343    1014    0.00
    10/24/2014 04:10      58    41.4      0.10        56.2      60.6      55.9       0       0       0     345    1014    0.00
    10/24/2014 04:20      60    41.6      0.10        55.8      60.6      55.5       0       0       0     333    1014    0.00
    10/24/2014 04:30      60    42.0      0.10        55.6      60.6      55.3       0       0       0     330    1014    0.00
    10/24/2014 04:40      57    41.6      0.10        55.8      60.6      55.3       1       1     331     333    1014    0.00
    10/24/2014 04:50      56    40.9      0.10        56.2      60.6      55.3       0       1     320     322    1014    0.00
    10/24/2014 05:00      56    40.7      0.10        56.1      60.6      55.3       0       1     325     331    1014    0.00
    10/24/2014 05:10      56    40.3      0.10        55.9      60.6      55.3       0       1     342     342    1014    0.00
    10/24/2014 05:20      56    40.0      0.10        55.3      60.6      55.0       0       1     348     348    1014    0.00
    10/24/2014 05:30      56    39.8      0.10        55.0      60.6      54.8       0       0       0     340    1014    0.00
    10/24/2014 05:40      56    39.9      0.10        55.2      60.6      54.8       0       0       0      47    1014    0.00
    10/24/2014 05:50      57    39.9      0.10        55.2      60.6      54.8       0       0       0      39    1014    0.00
    10/24/2014 06:00      58    40.1      0.10        55.0      60.6      54.5       0       0       0      78    1014    0.00
    10/24/2014 06:10      57    40.3      0.10        54.7      60.6      54.5       0       1     342     341    1014    0.00
    10/24/2014 06:20      57    40.0      0.10        55.2      60.6      54.5       0       1     353     353    1014    0.00
    10/24/2014 06:30      55    40.0      0.10        55.4      60.6      54.5       1       2     343     343    1014    0.00
    10/24/2014 06:40      54    39.9      0.10        56.0      60.6      54.5       1       2     343     340    1014    0.00
    10/24/2014 06:50      51    39.6      0.10        56.8      60.6      54.5       1       2     345     346    1014    0.00
    10/24/2014 07:00      51    40.0      0.10        57.9      60.6      54.5       0       1     346     349    1015    0.00
    10/24/2014 07:10      50    40.5      0.10        58.6      60.6      54.5       0       0       0     347    1015    0.00
    10/24/2014 07:20      49    41.5      0.10        60.1      61.1      54.5       0       0       0     348    1015    0.00
    10/24/2014 07:30      44    41.9      0.10        62.4      63.9      54.5       0       0       0     349    1015    0.00
    10/24/2014 07:40      41    42.1      0.10        65.6      68.1      54.5       0       0       0     341    1015    0.00
    10/24/2014 07:50      32    40.9      0.10        68.5      69.4      54.5       0       1     182     180    1015    0.00
    10/24/2014 08:00      29    37.0      0.10        69.9      70.6      54.5       1       1     180     180    1015    0.00
    10/24/2014 08:10      32    38.4      0.10        71.3      71.7      54.5       0       1     197     179    1015    0.00
    10/24/2014 08:20      31    39.3      0.10        71.2      71.7      54.5       0       1     205     188    1015    0.00
    10/24/2014 08:30      31    39.2      0.10        72.0      72.3      54.5       0       1     239     237    1015    0.00
    10/24/2014 08:40      33    40.1      0.10        72.6      73.2      54.5       1       2     234     227    1015    0.00
    10/24/2014 08:50      29    40.5      0.10        74.1      74.7      54.5       1       2     224     203    1015    0.00
    10/24/2014 09:00      27    39.0      0.10        74.9      75.3      54.5       1       3     230     238    1015    0.00
    10/24/2014 09:10      25    38.2      0.10        75.8      76.2      54.5       1       3     242     295    1015    0.00
    10/24/2014 09:20      24    38.8      0.10        77.2      78.8      54.5       0       2     229     218    1015    0.00
    10/24/2014 09:30      20    36.0      0.10        79.6      80.3      54.5       1       4      90      83    1015    0.00
    10/24/2014 09:40      21    35.9      0.10        79.8      80.6      54.5       2       5     124     126    1015    0.00
    10/24/2014 09:50      18    36.0      0.10        81.0      81.6      54.5       2       4      62      28    1015    0.00
    10/24/2014 10:00      16    33.6      0.10        81.2      82.7      54.5       2       6      94     113    1015    0.00
    10/24/2014 10:10      17    32.8      0.10        81.9      82.9      54.5       3       5      61      76    1015    0.00
    10/24/2014 10:20      16    32.5      0.10        82.1      83.0      54.5       2       4      88      63    1015    0.00
    10/24/2014 10:30      15    31.8      0.10        83.3      83.9      54.5       1       4     125      88    1015    0.00
    10/24/2014 10:40      16    32.3      0.10        83.9      84.8      54.5       2       5     164     171    1015    0.00
    10/24/2014 10:50      15    32.8      0.10        84.6      85.1      54.5       3       6     133     149    1015    0.00
    10/24/2014 11:00      16    33.1      0.10        84.3      85.1      54.5       2       5     115      81    1014    0.00
    10/24/2014 11:10      16    33.5      0.10        85.0      85.7      54.5       4       9     165     193    1014    0.00
    10/24/2014 11:20      14    33.3      0.10        85.1      86.0      54.5       3       7     153     176    1014    0.00
    10/24/2014 11:30      14    32.2      0.10        85.7      86.0      54.5       2       6     123     131    1014    0.00
    10/24/2014 11:40      13    32.9      0.10        86.3      87.0      54.5       4      11     175     159    1014    0.00
    10/24/2014 11:50      12    29.1      0.10        86.6      87.7      54.5       3       9     123     150    1014    0.00
    10/24/2014 12:00      12    28.8      0.10        87.5      87.9      54.5       4       9     124     139    1014    0.00
    10/24/2014 12:10      11    27.8      0.10        87.0      87.9      54.5       6      11     147     149    1014    0.00
    10/24/2014 12:20      11    27.3      0.10        87.5      88.0      54.5       4       8     135     168    1013    0.00
    10/24/2014 12:30      11    25.7      0.10        88.3      88.7      54.5       3       7     139     133    1013    0.00
    10/24/2014 12:40      11    25.6      0.10        88.4      88.9      54.5       3       8     118     149    1013    0.00
    10/24/2014 12:50       9    24.7      0.10        88.8      89.3      54.5       5      13     148     135    1013    0.00
    10/24/2014 13:00       9    23.4      0.10        88.2      89.3      54.5       6      10     165     160    1013    0.00
    10/24/2014 13:10       9    24.0      0.10        88.7      89.6      54.5       5       9     154     169    1013    0.00
    10/24/2014 13:20       9    23.9      0.10        88.5      89.6      54.5       5       9     135     180    1013    0.00
    10/24/2014 13:30      10    23.1      0.10        89.2      89.8      54.5       3       8     130     125    1013    0.00
    10/24/2014 13:40      10    24.6      0.10        89.4      89.9      54.5       4      10     161     164    1013    0.00
    10/24/2014 13:50      10    23.5      0.10        88.3      89.9      54.5       7      12     174     156    1013    0.00
    10/24/2014 14:00       9    22.9      0.10        88.5      89.9      54.5       4       8     144     101    1012    0.00
    10/24/2014 14:10       8    23.4      0.10        89.2      89.9      54.5       5       9     151     182    1012    0.00
    10/24/2014 14:20       9    22.6      0.10        89.0      89.9      54.5       4      10     127     141    1012    0.00
    10/24/2014 14:30       9    22.4      0.10        88.6      89.9      54.5       5       9     135     138    1013    0.00
    10/24/2014 14:40       9    22.6      0.10        88.5      89.9      54.5       5       9     140     169    1013    0.00
    10/24/2014 14:50       9    21.9      0.10        87.7      89.9      54.5       4       9     137     152    1013    0.00
    10/24/2014 15:00       9    23.3      0.10        87.5      89.9      54.5       5       9     148     173    1013    0.00
    10/24/2014 15:10      10    23.6      0.10        87.0      89.9      54.5       6      10     154     155    1012    0.00
    10/24/2014 15:20      10    22.3      0.10        86.9      89.9      54.5       4       8     139     131    1012    0.00
    10/24/2014 15:30       9    22.3      0.10        87.1      89.9      54.5       4       8     149     154    1012    0.00
    10/24/2014 15:40       9    22.2      0.10        86.7      89.9      54.5       4       8     147     171    1012    0.00
    10/24/2014 15:50      10    22.6      0.10        86.2      89.9      54.5       2       4     131     142    1012    0.00
    10/24/2014 16:00      11    23.3      0.10        85.3      89.9      54.5       4       8     145     179    1012    0.00
    10/24/2014 16:10      11    22.9      0.10        84.6      89.9      54.5       3       6     122     105    1012    0.00
    10/24/2014 16:20      11    24.0      0.10        84.3      89.9      54.5       2       5     130     151    1012    0.00
    10/24/2014 16:30      11    24.1      0.10        83.6      89.9      54.5       2       5     127     106    1012    0.00
    10/24/2014 16:40      11    24.5      0.10        83.3      89.9      54.5       2       5     128     132    1012    0.00
    10/24/2014 16:50      13    25.4      0.10        82.5      89.9      54.5       2       6     135     136    1012    0.00
    10/24/2014 17:00      14    26.7      0.10        81.3      89.9      54.5       2       4     138     103    1012    0.00
    10/24/2014 17:10      15    27.3      0.10        80.5      89.9      54.5       1       3     120     129    1013    0.00
    10/24/2014 17:20      15    27.5      0.10        79.4      89.9      54.5       1       3     130     145    1013    0.00
    10/24/2014 17:30      17    28.1      0.10        78.0      89.9      54.5       0       1     151     146    1013    0.00
    10/24/2014 17:40      18    28.4      0.10        76.5      89.9      54.5       0       0       0     196    1013    0.00
    10/24/2014 17:50      19    28.5      0.10        75.7      89.9      54.5       0       1     348     354    1013    0.00
    10/24/2014 18:00      21    29.8      0.10        75.0      89.9      54.5       0       0       0     341    1013    0.00
    10/24/2014 18:10      22    32.8      0.10        74.1      89.9      54.5       0       0     337     337    1013    0.00
    10/24/2014 18:20      23    33.2      0.10        73.8      89.9      54.5       0       0       5       8    1013    0.00
    10/24/2014 18:30      24    34.1      0.10        73.7      89.9      54.5       0       1     356       0    1013    0.00
    10/24/2014 18:40      31    35.2      0.10        73.1      89.9      54.5       0       0       0     328    1013    0.00
    10/24/2014 18:50      27    36.9      0.10        70.9      89.9      54.5       0       1     310     313    1013    0.00
    10/24/2014 19:00      27    35.3      0.10        71.1      89.9      54.5       0       2     342     345    1013    0.00
    10/24/2014 19:10      28    36.3      0.10        70.7      89.9      54.5       0       2     354     345    1013    0.00
    10/24/2014 19:20      32    37.9      0.10        69.9      89.9      54.5       0       1     333     336    1013    0.00
    10/24/2014 19:30      30    37.3      0.10        69.1      89.9      54.5       1       3      49      65    1013    0.00
    10/24/2014 19:40      31    37.1      0.10        69.8      89.9      54.5       0       2      25     347    1013    0.00
    10/24/2014 19:50      30    36.8      0.10        69.2      89.9      54.5       1       3      27     355    1014    0.00
    10/24/2014 20:00      34    36.6      0.10        69.0      89.9      54.5       1       4      14      16    1014    0.00
    10/24/2014 20:10      32    37.3      0.10        67.8      89.9      54.5       0       1      26      26    1014    0.00
    10/24/2014 20:20      32    37.0      0.10        67.5      89.9      54.5       0       1     352     353    1014    0.00
    10/24/2014 20:30      34    37.0      0.10        67.1      89.9      54.5       0       0       0      13    1014    0.00
    10/24/2014 20:40      36    37.6      0.10        66.2      89.9      54.5       0       0       0      49    1014    0.00
    10/24/2014 20:50      36    39.3      0.10        65.6      89.9      54.5       0       1     255     262    1014    0.00
    10/24/2014 21:00      36    37.9      0.10        65.6      89.9      54.5       0       0       0     343    1014    0.00
    10/24/2014 21:10      36    38.0      0.10        64.6      89.9      54.5       0       0       0     340    1014    0.00
    10/24/2014 21:20      36    37.3      0.10        64.9      89.9      54.5       0       0       0     323    1015    0.00
    10/24/2014 21:30      35    37.1      0.10        65.2      89.9      54.5       1       2     345     349    1015    0.00
    10/24/2014 21:40      34    37.1      0.10        66.0      89.9      54.5       1       2     343     347    1015    0.00
    10/24/2014 21:50      34    36.7      0.10        66.0      89.9      54.5       0       1     351     345    1015    0.00
    10/24/2014 22:00      35    36.4      0.10        65.6      89.9      54.5       0       0       0     344    1015    0.00